sensor_id;sensor_type;location;lat;lon;timestamp;P1;durP1;ratioP1;P2;durP2;ratioP2
4198;SDS011;2113;50.946;14.610;2024-01-11T00:02:08;11.45;;;5.13;;
4198;SDS011;2113;50.946;14.610;2024-01-11T00:04:36;11.30;;;5.47;;
4198;SDS011;2113;50.946;14.610;2024-01-11T00:07:07;12.00;;;6.05;;
4198;SDS011;2113;50.946;14.610;2024-01-11T00:09:38;15.15;;;5.90;;
4198;SDS011;2113;50.946;14.610;2024-01-11T00:12:10;10.85;;;6.57;;
4198;SDS011;2113;50.946;14.610;2024-01-11T00:14:39;13.02;;;6.53;;
4198;SDS011;2113;50.946;14.610;2024-01-11T00:17:08;16.92;;;7.03;;
4198;SDS011;2113;50.946;14.610;2024-01-11T00:19:37;12.52;;;5.75;;
4198;SDS011;2113;50.946;14.610;2024-01-11T00:22:06;13.35;;;5.18;;
4198;SDS011;2113;50.946;14.610;2024-01-11T00:24:34;13.48;;;6.75;;
4198;SDS011;2113;50.946;14.610;2024-01-11T00:27:05;14.02;;;7.50;;
4198;SDS011;2113;50.946;14.610;2024-01-11T00:29:38;13.02;;;5.82;;
4198;SDS011;2113;50.946;14.610;2024-01-11T00:32:07;14.00;;;6.15;;
4198;SDS011;2113;50.946;14.610;2024-01-11T00:34:35;8.50;;;4.22;;
4198;SDS011;2113;50.946;14.610;2024-01-11T00:37:04;12.57;;;4.53;;
4198;SDS011;2113;50.946;14.610;2024-01-11T00:39:35;11.98;;;5.80;;
4198;SDS011;2113;50.946;14.610;2024-01-11T00:42:03;9.50;;;4.68;;
4198;SDS011;2113;50.946;14.610;2024-01-11T00:44:33;10.82;;;5.72;;
4198;SDS011;2113;50.946;14.610;2024-01-11T00:47:02;12.13;;;5.35;;
4198;SDS011;2113;50.946;14.610;2024-01-11T00:49:33;9.18;;;4.80;;
4198;SDS011;2113;50.946;14.610;2024-01-11T00:52:02;11.02;;;5.45;;
4198;SDS011;2113;50.946;14.610;2024-01-11T00:54:31;15.90;;;4.13;;
4198;SDS011;2113;50.946;14.610;2024-01-11T00:56:59;9.82;;;5.30;;
4198;SDS011;2113;50.946;14.610;2024-01-11T00:59:27;8.52;;;4.93;;
4198;SDS011;2113;50.946;14.610;2024-01-11T01:01:59;9.25;;;5.32;;
4198;SDS011;2113;50.946;14.610;2024-01-11T01:04:27;13.10;;;5.32;;
4198;SDS011;2113;50.946;14.610;2024-01-11T01:06:55;10.52;;;4.45;;
4198;SDS011;2113;50.946;14.610;2024-01-11T01:09:24;14.75;;;5.45;;
4198;SDS011;2113;50.946;14.610;2024-01-11T01:11:52;14.30;;;7.80;;
4198;SDS011;2113;50.946;14.610;2024-01-11T01:14:20;14.48;;;5.25;;
4198;SDS011;2113;50.946;14.610;2024-01-11T01:16:48;11.00;;;5.32;;
4198;SDS011;2113;50.946;14.610;2024-01-11T01:23:56;11.95;;;5.95;;
4198;SDS011;2113;50.946;14.610;2024-01-11T01:26:51;13.93;;;6.70;;
4198;SDS011;2113;50.946;14.610;2024-01-11T01:29:20;13.80;;;6.03;;
4198;SDS011;2113;50.946;14.610;2024-01-11T01:31:48;13.57;;;6.45;;
4198;SDS011;2113;50.946;14.610;2024-01-11T01:34:16;23.23;;;6.97;;
4198;SDS011;2113;50.946;14.610;2024-01-11T01:36:45;13.57;;;5.57;;
4198;SDS011;2113;50.946;14.610;2024-01-11T01:39:15;14.02;;;6.55;;
4198;SDS011;2113;50.946;14.610;2024-01-11T01:41:43;10.13;;;5.45;;
4198;SDS011;2113;50.946;14.610;2024-01-11T01:44:11;12.52;;;4.95;;
4198;SDS011;2113;50.946;14.610;2024-01-11T01:46:39;10.82;;;5.75;;
4198;SDS011;2113;50.946;14.610;2024-01-11T01:49:09;15.35;;;7.43;;
4198;SDS011;2113;50.946;14.610;2024-01-11T01:51:39;14.38;;;5.60;;
4198;SDS011;2113;50.946;14.610;2024-01-11T01:54:08;15.80;;;6.15;;
4198;SDS011;2113;50.946;14.610;2024-01-11T01:56:37;11.35;;;6.30;;
4198;SDS011;2113;50.946;14.610;2024-01-11T01:59:06;12.60;;;5.93;;
4198;SDS011;2113;50.946;14.610;2024-01-11T02:01:35;12.73;;;6.40;;
4198;SDS011;2113;50.946;14.610;2024-01-11T02:04:04;16.27;;;6.70;;
4198;SDS011;2113;50.946;14.610;2024-01-11T02:06:32;11.55;;;4.88;;
4198;SDS011;2113;50.946;14.610;2024-01-11T02:09:02;9.85;;;5.30;;
4198;SDS011;2113;50.946;14.610;2024-01-11T02:11:31;15.82;;;5.70;;
4198;SDS011;2113;50.946;14.610;2024-01-11T02:14:02;16.30;;;6.03;;
4198;SDS011;2113;50.946;14.610;2024-01-11T02:16:31;15.73;;;6.38;;
4198;SDS011;2113;50.946;14.610;2024-01-11T02:19:00;13.63;;;7.15;;
4198;SDS011;2113;50.946;14.610;2024-01-11T02:21:29;12.70;;;6.57;;
4198;SDS011;2113;50.946;14.610;2024-01-11T02:24:04;14.18;;;6.30;;
4198;SDS011;2113;50.946;14.610;2024-01-11T02:26:33;16.23;;;6.90;;
4198;SDS011;2113;50.946;14.610;2024-01-11T02:29:02;15.50;;;5.63;;
4198;SDS011;2113;50.946;14.610;2024-01-11T02:31:34;12.23;;;7.45;;
4198;SDS011;2113;50.946;14.610;2024-01-11T02:34:03;18.77;;;6.13;;
4198;SDS011;2113;50.946;14.610;2024-01-11T02:36:31;15.20;;;7.35;;
4198;SDS011;2113;50.946;14.610;2024-01-11T02:39:00;19.55;;;6.85;;
4198;SDS011;2113;50.946;14.610;2024-01-11T02:41:30;15.60;;;7.15;;
4198;SDS011;2113;50.946;14.610;2024-01-11T02:44:00;14.55;;;9.25;;
4198;SDS011;2113;50.946;14.610;2024-01-11T02:46:29;12.75;;;5.95;;
4198;SDS011;2113;50.946;14.610;2024-01-11T02:48:58;14.50;;;6.82;;
4198;SDS011;2113;50.946;14.610;2024-01-11T02:51:27;20.48;;;8.80;;
4198;SDS011;2113;50.946;14.610;2024-01-11T02:53:55;12.93;;;6.40;;
4198;SDS011;2113;50.946;14.610;2024-01-11T02:56:24;14.73;;;7.25;;
4198;SDS011;2113;50.946;14.610;2024-01-11T02:58:55;14.35;;;8.10;;
4198;SDS011;2113;50.946;14.610;2024-01-11T03:01:23;17.40;;;7.03;;
4198;SDS011;2113;50.946;14.610;2024-01-11T03:03:52;14.07;;;7.07;;
4198;SDS011;2113;50.946;14.610;2024-01-11T03:06:20;14.75;;;6.50;;
4198;SDS011;2113;50.946;14.610;2024-01-11T03:08:49;14.07;;;8.65;;
4198;SDS011;2113;50.946;14.610;2024-01-11T03:11:17;17.38;;;7.00;;
4198;SDS011;2113;50.946;14.610;2024-01-11T03:13:45;13.93;;;7.10;;
4198;SDS011;2113;50.946;14.610;2024-01-11T03:16:15;18.48;;;7.78;;
4198;SDS011;2113;50.946;14.610;2024-01-11T03:18:43;16.00;;;6.93;;
4198;SDS011;2113;50.946;14.610;2024-01-11T03:21:11;12.75;;;5.78;;
4198;SDS011;2113;50.946;14.610;2024-01-11T03:23:40;15.13;;;7.72;;
4198;SDS011;2113;50.946;14.610;2024-01-11T03:26:11;14.68;;;7.53;;
4198;SDS011;2113;50.946;14.610;2024-01-11T03:28:41;17.80;;;6.95;;
4198;SDS011;2113;50.946;14.610;2024-01-11T03:31:09;14.90;;;7.28;;
4198;SDS011;2113;50.946;14.610;2024-01-11T03:33:39;13.32;;;6.95;;
4198;SDS011;2113;50.946;14.610;2024-01-11T03:36:08;15.20;;;7.60;;
4198;SDS011;2113;50.946;14.610;2024-01-11T03:38:37;23.38;;;8.55;;
4198;SDS011;2113;50.946;14.610;2024-01-11T03:41:09;17.73;;;6.35;;
4198;SDS011;2113;50.946;14.610;2024-01-11T03:43:38;20.38;;;7.05;;
4198;SDS011;2113;50.946;14.610;2024-01-11T03:46:06;16.48;;;7.38;;
4198;SDS011;2113;50.946;14.610;2024-01-11T03:48:33;19.27;;;8.02;;
4198;SDS011;2113;50.946;14.610;2024-01-11T03:51:04;19.02;;;7.80;;
4198;SDS011;2113;50.946;14.610;2024-01-11T03:53:35;18.20;;;8.20;;
4198;SDS011;2113;50.946;14.610;2024-01-11T03:56:05;14.40;;;8.30;;
4198;SDS011;2113;50.946;14.610;2024-01-11T03:58:33;16.63;;;7.03;;
4198;SDS011;2113;50.946;14.610;2024-01-11T04:01:06;22.33;;;7.40;;
4198;SDS011;2113;50.946;14.610;2024-01-11T04:03:37;13.75;;;6.68;;
4198;SDS011;2113;50.946;14.610;2024-01-11T04:06:07;16.60;;;7.47;;
4198;SDS011;2113;50.946;14.610;2024-01-11T04:08:36;13.68;;;7.68;;
4198;SDS011;2113;50.946;14.610;2024-01-11T04:11:04;15.73;;;7.05;;
4198;SDS011;2113;50.946;14.610;2024-01-11T04:13:34;21.23;;;8.45;;
4198;SDS011;2113;50.946;14.610;2024-01-11T04:16:05;21.35;;;9.77;;
4198;SDS011;2113;50.946;14.610;2024-01-11T04:18:34;14.93;;;8.30;;
4198;SDS011;2113;50.946;14.610;2024-01-11T04:21:02;17.15;;;8.98;;
4198;SDS011;2113;50.946;14.610;2024-01-11T04:23:36;19.95;;;8.55;;
4198;SDS011;2113;50.946;14.610;2024-01-11T04:26:04;19.02;;;8.40;;
4198;SDS011;2113;50.946;14.610;2024-01-11T04:28:32;12.82;;;6.35;;
4198;SDS011;2113;50.946;14.610;2024-01-11T04:31:00;12.70;;;7.55;;
4198;SDS011;2113;50.946;14.610;2024-01-11T04:33:28;17.77;;;7.80;;
4198;SDS011;2113;50.946;14.610;2024-01-11T04:35:56;11.75;;;6.65;;
4198;SDS011;2113;50.946;14.610;2024-01-11T04:38:25;17.20;;;7.32;;
4198;SDS011;2113;50.946;14.610;2024-01-11T04:40:54;18.15;;;7.57;;
4198;SDS011;2113;50.946;14.610;2024-01-11T04:43:23;16.48;;;7.55;;
4198;SDS011;2113;50.946;14.610;2024-01-11T04:45:51;15.15;;;8.20;;
4198;SDS011;2113;50.946;14.610;2024-01-11T04:48:19;20.73;;;8.18;;
4198;SDS011;2113;50.946;14.610;2024-01-11T04:50:47;18.98;;;9.23;;
4198;SDS011;2113;50.946;14.610;2024-01-11T04:53:16;17.70;;;7.25;;
4198;SDS011;2113;50.946;14.610;2024-01-11T04:55:45;19.60;;;8.15;;
4198;SDS011;2113;50.946;14.610;2024-01-11T04:58:14;14.00;;;6.25;;
4198;SDS011;2113;50.946;14.610;2024-01-11T05:00:43;12.68;;;6.68;;
4198;SDS011;2113;50.946;14.610;2024-01-11T05:03:11;17.30;;;8.07;;
4198;SDS011;2113;50.946;14.610;2024-01-11T05:05:39;16.35;;;7.50;;
4198;SDS011;2113;50.946;14.610;2024-01-11T05:08:07;16.45;;;7.63;;
4198;SDS011;2113;50.946;14.610;2024-01-11T05:10:35;17.90;;;7.10;;
4198;SDS011;2113;50.946;14.610;2024-01-11T05:13:03;20.67;;;8.00;;
4198;SDS011;2113;50.946;14.610;2024-01-11T05:15:33;17.88;;;7.55;;
4198;SDS011;2113;50.946;14.610;2024-01-11T05:18:02;15.18;;;8.15;;
4198;SDS011;2113;50.946;14.610;2024-01-11T05:20:31;14.73;;;7.80;;
4198;SDS011;2113;50.946;14.610;2024-01-11T05:22:59;18.08;;;9.55;;
4198;SDS011;2113;50.946;14.610;2024-01-11T05:25:29;16.88;;;7.13;;
4198;SDS011;2113;50.946;14.610;2024-01-11T05:28:00;17.35;;;7.35;;
4198;SDS011;2113;50.946;14.610;2024-01-11T05:30:29;18.70;;;8.88;;
4198;SDS011;2113;50.946;14.610;2024-01-11T05:32:59;20.95;;;7.80;;
4198;SDS011;2113;50.946;14.610;2024-01-11T05:35:27;20.73;;;7.63;;
4198;SDS011;2113;50.946;14.610;2024-01-11T05:37:56;23.48;;;10.30;;
4198;SDS011;2113;50.946;14.610;2024-01-11T05:40:24;23.73;;;9.43;;
4198;SDS011;2113;50.946;14.610;2024-01-11T05:42:52;15.93;;;7.35;;
4198;SDS011;2113;50.946;14.610;2024-01-11T05:45:20;18.67;;;9.63;;
4198;SDS011;2113;50.946;14.610;2024-01-11T05:48:03;16.52;;;8.07;;
4198;SDS011;2113;50.946;14.610;2024-01-11T05:50:32;24.10;;;9.32;;
4198;SDS011;2113;50.946;14.610;2024-01-11T05:53:00;21.00;;;11.00;;
4198;SDS011;2113;50.946;14.610;2024-01-11T05:55:29;25.67;;;10.80;;
4198;SDS011;2113;50.946;14.610;2024-01-11T05:57:57;25.50;;;11.32;;
4198;SDS011;2113;50.946;14.610;2024-01-11T06:00:25;20.08;;;9.20;;
4198;SDS011;2113;50.946;14.610;2024-01-11T06:02:53;20.05;;;9.35;;
4198;SDS011;2113;50.946;14.610;2024-01-11T06:05:23;19.13;;;7.72;;
4198;SDS011;2113;50.946;14.610;2024-01-11T06:07:51;15.82;;;9.30;;
4198;SDS011;2113;50.946;14.610;2024-01-11T06:10:20;22.13;;;8.52;;
4198;SDS011;2113;50.946;14.610;2024-01-11T06:12:48;21.40;;;7.30;;
4198;SDS011;2113;50.946;14.610;2024-01-11T06:15:16;20.98;;;8.07;;
4198;SDS011;2113;50.946;14.610;2024-01-11T06:17:44;19.73;;;8.63;;
4198;SDS011;2113;50.946;14.610;2024-01-11T06:20:13;15.15;;;8.70;;
4198;SDS011;2113;50.946;14.610;2024-01-11T06:22:43;24.20;;;11.32;;
4198;SDS011;2113;50.946;14.610;2024-01-11T06:25:12;21.95;;;9.30;;
4198;SDS011;2113;50.946;14.610;2024-01-11T06:27:41;20.65;;;10.43;;
4198;SDS011;2113;50.946;14.610;2024-01-11T06:30:10;15.77;;;8.05;;
4198;SDS011;2113;50.946;14.610;2024-01-11T06:32:39;16.95;;;8.65;;
4198;SDS011;2113;50.946;14.610;2024-01-11T06:35:07;18.52;;;9.52;;
4198;SDS011;2113;50.946;14.610;2024-01-11T06:37:36;21.25;;;9.70;;
4198;SDS011;2113;50.946;14.610;2024-01-11T06:40:07;20.67;;;8.27;;
4198;SDS011;2113;50.946;14.610;2024-01-11T06:42:35;27.33;;;8.48;;
4198;SDS011;2113;50.946;14.610;2024-01-11T06:45:04;23.08;;;10.95;;
4198;SDS011;2113;50.946;14.610;2024-01-11T06:47:33;19.90;;;9.60;;
4198;SDS011;2113;50.946;14.610;2024-01-11T06:50:01;25.25;;;10.88;;
4198;SDS011;2113;50.946;14.610;2024-01-11T06:52:30;27.55;;;11.73;;
4198;SDS011;2113;50.946;14.610;2024-01-11T06:54:58;20.52;;;11.80;;
4198;SDS011;2113;50.946;14.610;2024-01-11T06:57:28;25.75;;;10.80;;
4198;SDS011;2113;50.946;14.610;2024-01-11T06:59:57;24.38;;;10.63;;
4198;SDS011;2113;50.946;14.610;2024-01-11T07:02:25;17.50;;;9.60;;
4198;SDS011;2113;50.946;14.610;2024-01-11T07:04:53;20.63;;;10.05;;
4198;SDS011;2113;50.946;14.610;2024-01-11T07:07:21;28.02;;;12.55;;
4198;SDS011;2113;50.946;14.610;2024-01-11T07:09:50;27.45;;;12.18;;
4198;SDS011;2113;50.946;14.610;2024-01-11T07:12:21;28.50;;;10.55;;
4198;SDS011;2113;50.946;14.610;2024-01-11T07:14:51;26.13;;;11.30;;
4198;SDS011;2113;50.946;14.610;2024-01-11T07:17:19;20.92;;;10.15;;
4198;SDS011;2113;50.946;14.610;2024-01-11T07:19:49;27.17;;;13.18;;
4198;SDS011;2113;50.946;14.610;2024-01-11T07:22:17;19.42;;;10.95;;
4198;SDS011;2113;50.946;14.610;2024-01-11T07:24:45;21.63;;;9.57;;
4198;SDS011;2113;50.946;14.610;2024-01-11T07:27:14;23.50;;;11.05;;
4198;SDS011;2113;50.946;14.610;2024-01-11T07:29:42;39.72;;;15.20;;
4198;SDS011;2113;50.946;14.610;2024-01-11T07:32:12;37.40;;;13.07;;
4198;SDS011;2113;50.946;14.610;2024-01-11T07:34:40;28.10;;;14.57;;
4198;SDS011;2113;50.946;14.610;2024-01-11T07:37:08;29.35;;;13.77;;
4198;SDS011;2113;50.946;14.610;2024-01-11T07:39:36;34.35;;;14.18;;
4198;SDS011;2113;50.946;14.610;2024-01-11T07:42:06;27.45;;;14.40;;
4198;SDS011;2113;50.946;14.610;2024-01-11T07:44:34;31.83;;;15.48;;
4198;SDS011;2113;50.946;14.610;2024-01-11T07:47:02;36.65;;;16.42;;
4198;SDS011;2113;50.946;14.610;2024-01-11T07:49:32;30.40;;;16.05;;
4198;SDS011;2113;50.946;14.610;2024-01-11T07:52:00;29.88;;;17.15;;
4198;SDS011;2113;50.946;14.610;2024-01-11T07:54:29;33.17;;;16.20;;
4198;SDS011;2113;50.946;14.610;2024-01-11T07:56:58;38.75;;;16.95;;
4198;SDS011;2113;50.946;14.610;2024-01-11T07:59:26;35.72;;;14.70;;
4198;SDS011;2113;50.946;14.610;2024-01-11T08:01:54;40.92;;;17.05;;
4198;SDS011;2113;50.946;14.610;2024-01-11T08:04:23;33.70;;;16.73;;
4198;SDS011;2113;50.946;14.610;2024-01-11T08:06:52;40.67;;;17.65;;
4198;SDS011;2113;50.946;14.610;2024-01-11T08:09:20;29.60;;;16.02;;
4198;SDS011;2113;50.946;14.610;2024-01-11T08:11:49;29.00;;;15.35;;
4198;SDS011;2113;50.946;14.610;2024-01-11T08:14:19;27.60;;;17.15;;
4198;SDS011;2113;50.946;14.610;2024-01-11T08:16:47;31.88;;;15.98;;
4198;SDS011;2113;50.946;14.610;2024-01-11T08:19:15;30.67;;;16.67;;
4198;SDS011;2113;50.946;14.610;2024-01-11T08:21:44;37.30;;;16.42;;
4198;SDS011;2113;50.946;14.610;2024-01-11T08:24:13;35.08;;;15.65;;
4198;SDS011;2113;50.946;14.610;2024-01-11T08:26:41;37.85;;;16.88;;
4198;SDS011;2113;50.946;14.610;2024-01-11T08:29:10;30.20;;;16.20;;
4198;SDS011;2113;50.946;14.610;2024-01-11T08:31:39;34.88;;;18.52;;
4198;SDS011;2113;50.946;14.610;2024-01-11T08:34:10;35.03;;;17.80;;
4198;SDS011;2113;50.946;14.610;2024-01-11T08:36:39;33.00;;;16.85;;
4198;SDS011;2113;50.946;14.610;2024-01-11T08:39:08;36.47;;;18.45;;
4198;SDS011;2113;50.946;14.610;2024-01-11T08:41:39;35.35;;;19.83;;
4198;SDS011;2113;50.946;14.610;2024-01-11T08:44:09;48.95;;;21.05;;
4198;SDS011;2113;50.946;14.610;2024-01-11T08:46:37;44.67;;;22.42;;
4198;SDS011;2113;50.946;14.610;2024-01-11T08:49:05;35.83;;;20.02;;
4198;SDS011;2113;50.946;14.610;2024-01-11T08:51:34;31.23;;;18.33;;
4198;SDS011;2113;50.946;14.610;2024-01-11T08:54:02;36.78;;;18.23;;
4198;SDS011;2113;50.946;14.610;2024-01-11T08:56:35;35.60;;;16.77;;
4198;SDS011;2113;50.946;14.610;2024-01-11T08:59:05;39.30;;;17.50;;
4198;SDS011;2113;50.946;14.610;2024-01-11T09:01:35;38.72;;;15.50;;
4198;SDS011;2113;50.946;14.610;2024-01-11T09:04:03;38.88;;;15.23;;
4198;SDS011;2113;50.946;14.610;2024-01-11T09:06:33;36.17;;;16.95;;
4198;SDS011;2113;50.946;14.610;2024-01-11T09:09:01;32.08;;;16.55;;
4198;SDS011;2113;50.946;14.610;2024-01-11T09:11:29;31.95;;;15.93;;
4198;SDS011;2113;50.946;14.610;2024-01-11T09:13:58;30.33;;;14.73;;
4198;SDS011;2113;50.946;14.610;2024-01-11T09:16:28;33.38;;;15.98;;
4198;SDS011;2113;50.946;14.610;2024-01-11T09:18:56;29.90;;;14.35;;
4198;SDS011;2113;50.946;14.610;2024-01-11T09:21:26;31.10;;;14.13;;
4198;SDS011;2113;50.946;14.610;2024-01-11T09:23:54;29.25;;;14.80;;
4198;SDS011;2113;50.946;14.610;2024-01-11T09:26:23;27.48;;;13.95;;
4198;SDS011;2113;50.946;14.610;2024-01-11T09:28:51;29.65;;;14.48;;
4198;SDS011;2113;50.946;14.610;2024-01-11T09:31:19;29.08;;;13.93;;
4198;SDS011;2113;50.946;14.610;2024-01-11T09:33:48;30.15;;;15.63;;
4198;SDS011;2113;50.946;14.610;2024-01-11T09:36:17;33.33;;;14.85;;
4198;SDS011;2113;50.946;14.610;2024-01-11T09:38:46;24.65;;;13.02;;
4198;SDS011;2113;50.946;14.610;2024-01-11T09:41:15;30.63;;;14.68;;
4198;SDS011;2113;50.946;14.610;2024-01-11T09:43:45;29.30;;;14.98;;
4198;SDS011;2113;50.946;14.610;2024-01-11T09:46:18;31.55;;;15.27;;
4198;SDS011;2113;50.946;14.610;2024-01-11T09:48:48;30.55;;;14.13;;
4198;SDS011;2113;50.946;14.610;2024-01-11T09:51:18;27.52;;;15.02;;
4198;SDS011;2113;50.946;14.610;2024-01-11T09:53:46;27.58;;;15.05;;
4198;SDS011;2113;50.946;14.610;2024-01-11T09:56:17;32.38;;;14.40;;
4198;SDS011;2113;50.946;14.610;2024-01-11T09:58:46;26.08;;;14.00;;
4198;SDS011;2113;50.946;14.610;2024-01-11T10:01:17;30.38;;;14.95;;
4198;SDS011;2113;50.946;14.610;2024-01-11T10:03:45;31.27;;;16.52;;
4198;SDS011;2113;50.946;14.610;2024-01-11T10:06:15;22.95;;;13.90;;
4198;SDS011;2113;50.946;14.610;2024-01-11T10:08:45;28.33;;;13.07;;
4198;SDS011;2113;50.946;14.610;2024-01-11T10:11:13;30.98;;;14.30;;
4198;SDS011;2113;50.946;14.610;2024-01-11T10:13:42;30.75;;;14.70;;
4198;SDS011;2113;50.946;14.610;2024-01-11T10:16:12;25.88;;;15.35;;
4198;SDS011;2113;50.946;14.610;2024-01-11T10:18:42;31.42;;;15.27;;
4198;SDS011;2113;50.946;14.610;2024-01-11T10:21:11;27.77;;;13.45;;
4198;SDS011;2113;50.946;14.610;2024-01-11T10:23:40;24.17;;;11.73;;
4198;SDS011;2113;50.946;14.610;2024-01-11T10:26:09;25.40;;;12.73;;
4198;SDS011;2113;50.946;14.610;2024-01-11T10:28:38;20.83;;;12.38;;
4198;SDS011;2113;50.946;14.610;2024-01-11T10:31:06;26.00;;;11.40;;
4198;SDS011;2113;50.946;14.610;2024-01-11T10:33:35;33.13;;;13.07;;
4198;SDS011;2113;50.946;14.610;2024-01-11T10:36:04;25.02;;;11.10;;
4198;SDS011;2113;50.946;14.610;2024-01-11T10:38:35;22.00;;;10.75;;
4198;SDS011;2113;50.946;14.610;2024-01-11T10:41:06;22.85;;;13.52;;
4198;SDS011;2113;50.946;14.610;2024-01-11T10:43:36;24.88;;;11.50;;
4198;SDS011;2113;50.946;14.610;2024-01-11T10:46:05;28.67;;;13.32;;
4198;SDS011;2113;50.946;14.610;2024-01-11T10:48:37;26.90;;;11.60;;
4198;SDS011;2113;50.946;14.610;2024-01-11T10:51:07;21.60;;;10.73;;
4198;SDS011;2113;50.946;14.610;2024-01-11T10:53:43;27.63;;;11.98;;
4198;SDS011;2113;50.946;14.610;2024-01-11T10:56:14;23.52;;;11.95;;
4198;SDS011;2113;50.946;14.610;2024-01-11T10:58:44;26.27;;;13.20;;
4198;SDS011;2113;50.946;14.610;2024-01-11T11:01:13;21.98;;;11.95;;
4198;SDS011;2113;50.946;14.610;2024-01-11T11:03:41;27.95;;;13.43;;
4198;SDS011;2113;50.946;14.610;2024-01-11T11:06:11;27.35;;;11.90;;
4198;SDS011;2113;50.946;14.610;2024-01-11T11:08:41;21.90;;;11.43;;
4198;SDS011;2113;50.946;14.610;2024-01-11T11:11:10;26.80;;;13.35;;
4198;SDS011;2113;50.946;14.610;2024-01-11T11:13:42;24.05;;;12.45;;
4198;SDS011;2113;50.946;14.610;2024-01-11T11:16:14;30.27;;;13.00;;
4198;SDS011;2113;50.946;14.610;2024-01-11T11:18:42;29.67;;;14.10;;
4198;SDS011;2113;50.946;14.610;2024-01-11T11:21:11;25.73;;;13.23;;
4198;SDS011;2113;50.946;14.610;2024-01-11T11:23:40;30.25;;;14.07;;
4198;SDS011;2113;50.946;14.610;2024-01-11T11:26:13;26.42;;;14.20;;
4198;SDS011;2113;50.946;14.610;2024-01-11T11:28:44;31.38;;;15.38;;
4198;SDS011;2113;50.946;14.610;2024-01-11T11:31:23;29.30;;;14.95;;
4198;SDS011;2113;50.946;14.610;2024-01-11T11:34:03;29.60;;;13.07;;
4198;SDS011;2113;50.946;14.610;2024-01-11T11:36:33;30.92;;;12.48;;
4198;SDS011;2113;50.946;14.610;2024-01-11T11:39:02;33.08;;;14.43;;
4198;SDS011;2113;50.946;14.610;2024-01-11T11:41:30;31.52;;;11.82;;
4198;SDS011;2113;50.946;14.610;2024-01-11T11:44:04;31.30;;;14.63;;
4198;SDS011;2113;50.946;14.610;2024-01-11T11:46:33;22.75;;;11.20;;
4198;SDS011;2113;50.946;14.610;2024-01-11T11:49:01;29.23;;;12.15;;
4198;SDS011;2113;50.946;14.610;2024-01-11T11:51:30;24.55;;;12.30;;
4198;SDS011;2113;50.946;14.610;2024-01-11T11:54:00;31.08;;;13.07;;
4198;SDS011;2113;50.946;14.610;2024-01-11T11:56:30;23.23;;;11.80;;
4198;SDS011;2113;50.946;14.610;2024-01-11T11:58:58;21.40;;;10.75;;
4198;SDS011;2113;50.946;14.610;2024-01-11T12:01:31;20.92;;;11.63;;
4198;SDS011;2113;50.946;14.610;2024-01-11T12:04:00;25.80;;;13.70;;
4198;SDS011;2113;50.946;14.610;2024-01-11T12:06:29;23.85;;;12.65;;
4198;SDS011;2113;50.946;14.610;2024-01-11T12:08:58;30.73;;;14.20;;
4198;SDS011;2113;50.946;14.610;2024-01-11T12:11:26;24.33;;;12.30;;
4198;SDS011;2113;50.946;14.610;2024-01-11T12:13:55;31.17;;;14.70;;
4198;SDS011;2113;50.946;14.610;2024-01-11T12:16:25;24.80;;;11.52;;
4198;SDS011;2113;50.946;14.610;2024-01-11T12:18:55;23.00;;;11.95;;
4198;SDS011;2113;50.946;14.610;2024-01-11T12:21:24;20.08;;;9.93;;
4198;SDS011;2113;50.946;14.610;2024-01-11T12:23:53;20.92;;;11.05;;
4198;SDS011;2113;50.946;14.610;2024-01-11T12:26:22;22.40;;;12.02;;
4198;SDS011;2113;50.946;14.610;2024-01-11T12:28:51;26.20;;;11.20;;
4198;SDS011;2113;50.946;14.610;2024-01-11T12:31:21;31.58;;;11.02;;
4198;SDS011;2113;50.946;14.610;2024-01-11T12:33:50;28.08;;;12.38;;
4198;SDS011;2113;50.946;14.610;2024-01-11T12:36:20;22.23;;;10.48;;
4198;SDS011;2113;50.946;14.610;2024-01-11T12:38:48;18.83;;;10.88;;
4198;SDS011;2113;50.946;14.610;2024-01-11T12:41:20;23.48;;;11.10;;
4198;SDS011;2113;50.946;14.610;2024-01-11T12:43:50;25.33;;;12.23;;
4198;SDS011;2113;50.946;14.610;2024-01-11T12:46:19;29.00;;;11.20;;
4198;SDS011;2113;50.946;14.610;2024-01-11T12:48:47;26.77;;;11.73;;
4198;SDS011;2113;50.946;14.610;2024-01-11T12:51:18;24.95;;;12.80;;
4198;SDS011;2113;50.946;14.610;2024-01-11T12:53:50;22.55;;;11.75;;
4198;SDS011;2113;50.946;14.610;2024-01-11T12:56:20;21.50;;;11.13;;
4198;SDS011;2113;50.946;14.610;2024-01-11T12:58:50;30.65;;;11.82;;
4198;SDS011;2113;50.946;14.610;2024-01-11T13:01:18;20.63;;;11.02;;
4198;SDS011;2113;50.946;14.610;2024-01-11T13:03:48;29.48;;;12.95;;
4198;SDS011;2113;50.946;14.610;2024-01-11T13:06:16;20.73;;;12.25;;
4198;SDS011;2113;50.946;14.610;2024-01-11T13:08:46;30.48;;;12.75;;
4198;SDS011;2113;50.946;14.610;2024-01-11T13:11:16;24.77;;;11.80;;
4198;SDS011;2113;50.946;14.610;2024-01-11T13:13:47;25.73;;;12.20;;
4198;SDS011;2113;50.946;14.610;2024-01-11T13:16:16;25.13;;;11.57;;
4198;SDS011;2113;50.946;14.610;2024-01-11T13:18:46;26.30;;;12.73;;
4198;SDS011;2113;50.946;14.610;2024-01-11T13:21:14;34.47;;;12.43;;
4198;SDS011;2113;50.946;14.610;2024-01-11T13:23:45;32.95;;;13.77;;
4198;SDS011;2113;50.946;14.610;2024-01-11T13:26:13;22.75;;;12.57;;
4198;SDS011;2113;50.946;14.610;2024-01-11T13:28:43;32.15;;;15.85;;
4198;SDS011;2113;50.946;14.610;2024-01-11T13:31:11;29.15;;;14.50;;
4198;SDS011;2113;50.946;14.610;2024-01-11T13:33:40;31.60;;;14.13;;
4198;SDS011;2113;50.946;14.610;2024-01-11T13:36:08;25.25;;;13.50;;
4198;SDS011;2113;50.946;14.610;2024-01-11T13:38:36;28.63;;;12.80;;
4198;SDS011;2113;50.946;14.610;2024-01-11T13:41:04;35.38;;;15.23;;
4198;SDS011;2113;50.946;14.610;2024-01-11T13:43:35;32.88;;;14.13;;
4198;SDS011;2113;50.946;14.610;2024-01-11T13:46:05;37.33;;;14.77;;
4198;SDS011;2113;50.946;14.610;2024-01-11T13:48:33;33.70;;;15.40;;
4198;SDS011;2113;50.946;14.610;2024-01-11T13:51:02;33.08;;;15.77;;
4198;SDS011;2113;50.946;14.610;2024-01-11T13:53:31;30.58;;;15.23;;
4198;SDS011;2113;50.946;14.610;2024-01-11T13:56:00;36.53;;;14.63;;
4198;SDS011;2113;50.946;14.610;2024-01-11T13:58:29;28.30;;;13.30;;
4198;SDS011;2113;50.946;14.610;2024-01-11T14:00:57;32.33;;;14.82;;
4198;SDS011;2113;50.946;14.610;2024-01-11T14:03:27;25.20;;;11.95;;
4198;SDS011;2113;50.946;14.610;2024-01-11T14:05:56;30.25;;;15.05;;
4198;SDS011;2113;50.946;14.610;2024-01-11T14:08:24;38.45;;;15.57;;
4198;SDS011;2113;50.946;14.610;2024-01-11T14:10:53;29.65;;;14.88;;
4198;SDS011;2113;50.946;14.610;2024-01-11T14:13:21;30.75;;;14.85;;
4198;SDS011;2113;50.946;14.610;2024-01-11T14:15:50;37.63;;;15.18;;
4198;SDS011;2113;50.946;14.610;2024-01-11T14:18:18;31.58;;;14.35;;
4198;SDS011;2113;50.946;14.610;2024-01-11T14:20:49;38.05;;;16.48;;
4198;SDS011;2113;50.946;14.610;2024-01-11T14:23:18;31.60;;;15.63;;
4198;SDS011;2113;50.946;14.610;2024-01-11T14:25:46;35.75;;;14.05;;
4198;SDS011;2113;50.946;14.610;2024-01-11T14:28:15;34.67;;;14.48;;
4198;SDS011;2113;50.946;14.610;2024-01-11T14:30:43;32.47;;;14.20;;
4198;SDS011;2113;50.946;14.610;2024-01-11T14:33:13;31.60;;;14.20;;
4198;SDS011;2113;50.946;14.610;2024-01-11T14:35:41;33.42;;;14.77;;
4198;SDS011;2113;50.946;14.610;2024-01-11T14:38:11;44.40;;;15.82;;
4198;SDS011;2113;50.946;14.610;2024-01-11T14:40:39;29.08;;;13.50;;
4198;SDS011;2113;50.946;14.610;2024-01-11T14:43:08;32.10;;;15.02;;
4198;SDS011;2113;50.946;14.610;2024-01-11T14:45:36;36.58;;;15.30;;
4198;SDS011;2113;50.946;14.610;2024-01-11T14:48:05;35.45;;;15.40;;
4198;SDS011;2113;50.946;14.610;2024-01-11T14:50:33;32.40;;;14.25;;
4198;SDS011;2113;50.946;14.610;2024-01-11T14:53:02;30.17;;;13.25;;
4198;SDS011;2113;50.946;14.610;2024-01-11T14:55:36;34.10;;;16.30;;
4198;SDS011;2113;50.946;14.610;2024-01-11T14:58:04;40.83;;;17.98;;